Time;durP1;ratioP1;P1;durP2;ratioP2;P2;SDS_P1;SDS_P2;PMS_P1;PMS_P2;Temp;Humidity;BMP_temperature;BMP_pressure;BME280_temperature;BME280_humidity;BME280_pressure;Samples;Min_cycle;Max_cycle;Signal;HPM_P1;HPM_P2
2022/04/25 00:01:37;;;;;;;19.63;11.32;;;9.00;99.90;;;;;;4993811;28;20129;-66
2022/04/25 00:04:03;;;;;;;18.25;10.68;;;9.00;99.90;;;;;;4994061;28;20042;-66
2022/04/25 00:06:29;;;;;;;17.73;11.13;;;9.00;99.90;;;;;;4995340;28;20035;-66
2022/04/25 00:08:55;;;;;;;19.42;12.35;;;9.00;99.90;;;;;;4995358;28;20073;-66
2022/04/25 00:11:21;;;;;;;17.98;10.80;;;9.00;99.90;;;;;;4994906;28;20081;-66
2022/04/25 00:13:46;;;;;;;14.30;11.10;;;8.90;99.90;;;;;;4995185;28;20041;-67
2022/04/25 00:16:13;;;;;;;18.85;11.23;;;8.80;99.90;;;;;;4994875;28;20564;-66
2022/04/25 00:18:38;;;;;;;19.98;12.02;;;8.70;99.90;;;;;;4994680;28;20126;-66
2022/04/25 00:21:05;;;;;;;20.42;12.82;;;8.60;99.90;;;;;;4994623;28;20122;-66
2022/04/25 00:23:30;;;;;;;22.30;11.50;;;8.70;99.90;;;;;;4995015;28;20034;-66
2022/04/25 00:25:56;;;;;;;19.98;12.52;;;8.70;99.90;;;;;;4994998;28;20093;-66
2022/04/25 00:28:22;;;;;;;22.65;11.98;;;8.70;99.90;;;;;;4994771;28;20050;-66
2022/04/25 00:30:47;;;;;;;20.17;13.05;;;8.80;99.90;;;;;;4994523;28;20103;-66
2022/04/25 00:33:13;;;;;;;23.25;12.77;;;8.80;99.90;;;;;;4994616;28;20038;-66
2022/04/25 00:35:38;;;;;;;18.10;11.50;;;8.80;99.90;;;;;;4994580;28;20083;-66
2022/04/25 00:38:04;;;;;;;16.45;11.95;;;8.80;99.90;;;;;;4993116;28;20077;-66
2022/04/25 00:40:30;;;;;;;24.27;12.32;;;8.80;99.90;;;;;;4994288;28;20034;-66
2022/04/25 00:42:55;;;;;;;20.23;12.50;;;8.80;99.90;;;;;;4994510;28;20045;-66
2022/04/25 00:45:21;;;;;;;21.92;12.07;;;8.80;99.90;;;;;;4994501;28;20042;-66
2022/04/25 00:47:47;;;;;;;25.73;14.05;;;8.70;99.90;;;;;;4994481;28;20042;-67
2022/04/25 00:50:13;;;;;;;23.38;14.70;;;8.60;99.90;;;;;;4994032;28;20046;-67
2022/04/25 00:52:40;;;;;;;25.45;14.15;;;8.60;99.90;;;;;;4994645;28;20093;-66
2022/04/25 00:55:08;;;;;;;25.60;14.75;;;8.60;99.90;;;;;;4994415;28;20042;-66
2022/04/25 00:57:35;;;;;;;24.40;15.35;;;8.50;99.90;;;;;;4994312;28;20045;-66
2022/04/25 01:00:05;;;;;;;24.15;13.40;;;8.50;99.90;;;;;;4993825;28;20034;-66
2022/04/25 01:02:30;;;;;;;26.33;15.13;;;8.50;99.90;;;;;;4994207;28;20104;-66
2022/04/25 01:04:56;;;;;;;23.70;13.77;;;8.40;99.90;;;;;;4994055;28;20495;-66
2022/04/25 01:07:22;;;;;;;26.58;14.48;;;8.50;99.90;;;;;;4994137;28;20042;-66
2022/04/25 01:09:48;;;;;;;24.02;14.23;;;8.40;99.90;;;;;;4994236;28;20526;-66
2022/04/25 01:12:13;;;;;;;21.75;13.43;;;8.40;99.90;;;;;;4993848;28;20042;-66
2022/04/25 01:14:39;;;;;;;20.88;13.77;;;8.30;99.90;;;;;;4993980;28;20081;-66
2022/04/25 01:17:05;;;;;;;25.90;13.70;;;8.40;99.90;;;;;;4993743;28;20049;-66
2022/04/25 01:19:30;;;;;;;22.27;11.85;;;8.40;99.90;;;;;;4993976;28;20049;-66
2022/04/25 01:21:58;;;;;;;24.27;14.55;;;8.40;99.90;;;;;;4993676;28;20049;-66
2022/04/25 01:27:17;;;;;;;23.77;13.85;;;8.30;99.90;;;;;;4993769;28;20124;-66
2022/04/25 01:29:51;;;;;;;26.83;12.50;;;8.30;99.90;;;;;;4992903;28;20042;-66
2022/04/25 01:32:17;;;;;;;25.50;12.27;;;8.20;99.90;;;;;;4993550;28;20053;-66
2022/04/25 01:34:43;;;;;;;24.77;13.55;;;8.30;99.90;;;;;;4993726;28;20054;-66
2022/04/25 01:37:14;;;;;;;23.63;13.15;;;8.30;99.90;;;;;;4993454;28;20042;-66
2022/04/25 01:39:47;;;;;;;30.40;14.45;;;8.30;99.90;;;;;;4993379;28;20045;-66
2022/04/25 01:42:13;;;;;;;21.98;12.88;;;8.40;99.90;;;;;;4993338;28;20034;-66
2022/04/25 01:44:39;;;;;;;23.10;13.40;;;8.40;99.90;;;;;;4993597;28;20500;-66
2022/04/25 01:47:06;;;;;;;26.30;13.18;;;8.40;99.90;;;;;;4993464;28;20164;-66
2022/04/25 01:49:33;;;;;;;22.42;12.48;;;8.30;99.90;;;;;;4993392;28;20420;-66
2022/04/25 01:52:03;;;;;;;22.17;12.57;;;8.40;99.90;;;;;;4993143;28;20042;-66
2022/04/25 01:54:32;;;;;;;25.98;13.25;;;8.40;99.90;;;;;;4993384;28;20108;-66
2022/04/25 01:56:57;;;;;;;27.17;13.65;;;8.40;99.90;;;;;;4993549;28;20046;-66
2022/04/25 01:59:23;;;;;;;24.55;11.50;;;8.40;99.90;;;;;;4993227;28;20065;-66
2022/04/25 02:01:49;;;;;;;22.40;11.65;;;8.40;99.90;;;;;;4992973;28;20070;-66
2022/04/25 02:04:15;;;;;;;20.80;12.07;;;8.50;99.90;;;;;;4993188;28;20041;-66
2022/04/25 02:06:41;;;;;;;21.27;11.27;;;8.50;99.90;;;;;;4992901;28;20031;-66
2022/04/25 02:09:06;;;;;;;17.63;12.00;;;8.50;99.90;;;;;;4993019;28;20049;-66
2022/04/25 02:11:32;;;;;;;18.10;10.38;;;8.40;99.90;;;;;;4992844;28;20500;-66
2022/04/25 02:13:58;;;;;;;16.98;10.02;;;8.40;99.90;;;;;;4993108;28;20038;-66
2022/04/25 02:16:24;;;;;;;14.93;9.43;;;8.40;99.90;;;;;;4993175;28;20050;-66
2022/04/25 02:18:51;;;;;;;14.60;9.80;;;8.50;99.90;;;;;;4992847;28;20046;-66
2022/04/25 02:21:17;;;;;;;19.02;10.18;;;8.50;99.90;;;;;;4992433;28;20476;-66
2022/04/25 02:23:43;;;;;;;13.30;8.52;;;8.50;99.90;;;;;;4992648;28;20117;-66
2022/04/25 02:26:09;;;;;;;11.75;8.07;;;8.40;99.90;;;;;;4992584;28;20492;-66
2022/04/25 02:28:37;;;;;;;15.23;8.82;;;8.50;99.90;;;;;;4992671;28;20050;-66
2022/04/25 02:31:04;;;;;;;16.13;9.35;;;8.50;99.90;;;;;;4992321;28;20407;-66
2022/04/25 02:33:30;;;;;;;17.35;9.65;;;8.40;99.90;;;;;;4992652;28;20436;-66
2022/04/25 02:35:55;;;;;;;17.58;10.23;;;8.40;99.90;;;;;;4992608;28;20108;-66
2022/04/25 02:38:21;;;;;;;18.73;10.02;;;8.50;99.90;;;;;;4992249;28;20197;-66
2022/04/25 02:41:04;;;;;;;16.30;9.75;;;8.50;99.90;;;;;;4991233;28;20050;-66
2022/04/25 02:43:39;;;;;;;12.65;8.70;;;8.50;99.90;;;;;;4992467;28;20042;-66
2022/04/25 02:46:08;;;;;;;15.65;8.95;;;8.40;99.90;;;;;;4992548;28;20093;-66
2022/04/25 02:48:38;;;;;;;16.23;10.07;;;8.40;99.90;;;;;;4992382;28;20046;-66
2022/04/25 02:51:05;;;;;;;17.67;9.38;;;8.40;99.90;;;;;;4991973;28;20046;-66
2022/04/25 02:53:31;;;;;;;19.23;9.77;;;8.40;99.90;;;;;;4992566;28;20042;-66
2022/04/25 02:55:57;;;;;;;16.10;9.30;;;8.40;99.90;;;;;;4992458;28;20049;-66
2022/04/25 02:58:24;;;;;;;15.30;10.02;;;8.40;99.90;;;;;;4992251;28;20050;-66
2022/04/25 03:00:50;;;;;;;15.90;10.63;;;8.40;99.90;;;;;;4992052;28;20035;-66
2022/04/25 03:03:18;;;;;;;17.30;10.60;;;8.40;99.90;;;;;;4992246;28;20038;-66
2022/04/25 03:05:45;;;;;;;15.30;10.18;;;8.40;99.90;;;;;;4992154;28;20038;-66
2022/04/25 03:08:12;;;;;;;15.98;10.93;;;8.40;99.90;;;;;;4992176;28;20074;-66
2022/04/25 03:10:38;;;;;;;17.48;11.40;;;8.30;99.90;;;;;;4992051;28;20050;-66
2022/04/25 03:13:07;;;;;;;21.55;12.82;;;8.20;99.90;;;;;;4992202;28;20424;-66
2022/04/25 03:15:34;;;;;;;23.63;11.52;;;8.20;99.90;;;;;;4992160;28;20066;-66
2022/04/25 03:18:00;;;;;;;20.45;12.32;;;8.10;99.90;;;;;;4991892;28;20082;-66
2022/04/25 03:20:27;;;;;;;22.60;12.15;;;8.20;99.90;;;;;;4991763;28;20400;-66
2022/04/25 03:22:54;;;;;;;17.40;11.32;;;8.10;99.90;;;;;;4992233;28;20034;-66
2022/04/25 03:25:19;;;;;;;17.27;11.15;;;8.10;99.90;;;;;;4992202;28;20049;-66
2022/04/25 03:27:45;;;;;;;18.60;10.75;;;8.10;99.90;;;;;;4991988;28;20034;-66
2022/04/25 03:30:11;;;;;;;16.80;10.98;;;8.10;99.90;;;;;;4991707;28;20566;-66
2022/04/25 03:32:36;;;;;;;18.67;10.65;;;8.20;99.90;;;;;;4991887;28;20027;-66
2022/04/25 03:35:03;;;;;;;21.65;9.48;;;8.20;99.90;;;;;;4990763;28;20122;-66
2022/04/25 03:37:30;;;;;;;18.98;10.82;;;8.20;99.90;;;;;;4991894;28;20077;-66
2022/04/25 03:39:59;;;;;;;18.30;10.55;;;8.10;99.90;;;;;;4991706;28;20042;-67
2022/04/25 03:42:25;;;;;;;17.35;10.98;;;8.20;99.90;;;;;;4991805;28;20062;-66
2022/04/25 03:44:51;;;;;;;17.45;11.05;;;8.20;99.90;;;;;;4991911;28;20463;-66
2022/04/25 03:47:16;;;;;;;15.60;10.25;;;8.20;99.90;;;;;;4991877;28;20030;-66
2022/04/25 03:49:42;;;;;;;16.60;10.27;;;8.10;99.90;;;;;;4992062;28;20050;-66
2022/04/25 03:52:07;;;;;;;17.67;11.45;;;8.00;99.90;;;;;;4991853;28;20038;-66
2022/04/25 03:57:17;;;;;;;16.63;10.80;;;8.00;99.90;;;;;;4995412;28;20435;-66
2022/04/25 03:59:43;;;;;;;16.52;10.80;;;7.90;99.90;;;;;;4995181;28;20039;-66
2022/04/25 04:02:08;;;;;;;16.50;11.00;;;8.10;99.90;;;;;;4995238;28;20436;-66
2022/04/25 04:04:34;;;;;;;16.48;9.75;;;8.10;99.90;;;;;;4995426;28;20113;-66
2022/04/25 04:07:00;;;;;;;15.00;10.02;;;8.10;99.90;;;;;;4995244;28;20452;-66
2022/04/25 04:12:10;;;;;;;19.35;10.50;;;8.20;99.90;;;;;;4994824;28;20086;-66
2022/04/25 04:14:36;;;;;;;16.67;9.55;;;8.10;99.90;;;;;;4995242;28;20120;-66
2022/04/25 04:17:02;;;;;;;13.68;9.25;;;8.20;99.90;;;;;;4995025;28;20050;-66
2022/04/25 04:19:28;;;;;;;14.93;9.68;;;8.10;99.90;;;;;;4995007;28;20046;-66
2022/04/25 04:21:54;;;;;;;14.18;9.82;;;8.10;99.90;;;;;;4994782;28;20038;-66
2022/04/25 04:24:19;;;;;;;13.30;8.95;;;8.20;99.90;;;;;;4994911;28;20093;-66
2022/04/25 04:26:45;;;;;;;12.77;8.80;;;8.20;99.90;;;;;;4994608;28;20042;-66
2022/04/25 04:29:11;;;;;;;16.00;9.90;;;8.30;99.90;;;;;;4994860;28;20104;-66
2022/04/25 04:31:37;;;;;;;17.05;10.00;;;8.30;99.90;;;;;;4994636;28;20109;-66
2022/04/25 04:34:03;;;;;;;16.70;9.63;;;8.20;99.90;;;;;;4994879;28;20518;-66
2022/04/25 04:36:29;;;;;;;17.83;9.93;;;8.20;99.90;;;;;;4994516;28;20042;-66
2022/04/25 04:38:54;;;;;;;13.45;9.18;;;8.30;99.90;;;;;;4994524;28;20046;-66
2022/04/25 04:41:20;;;;;;;14.80;9.55;;;8.20;99.90;;;;;;4994259;28;20161;-66
2022/04/25 04:43:45;;;;;;;11.15;8.50;;;8.20;99.90;;;;;;4993364;28;20113;-66
2022/04/25 04:46:11;;;;;;;14.95;9.85;;;8.30;99.90;;;;;;4994614;28;20050;-66
2022/04/25 04:48:36;;;;;;;16.30;10.98;;;8.30;99.90;;;;;;4994567;28;20038;-66
2022/04/25 04:51:02;;;;;;;18.83;10.63;;;8.10;99.90;;;;;;4994218;28;20080;-66
2022/04/25 04:53:28;;;;;;;21.73;11.23;;;8.20;99.90;;;;;;4994422;28;20396;-66
2022/04/25 04:55:53;;;;;;;17.05;10.32;;;8.20;99.90;;;;;;4994280;28;20077;-66
2022/04/25 04:58:19;;;;;;;18.13;10.82;;;8.20;99.90;;;;;;4994264;28;20100;-66
2022/04/25 05:00:46;;;;;;;15.55;10.50;;;8.20;99.90;;;;;;4994098;28;20035;-66
2022/04/25 05:03:15;;;;;;;17.83;10.60;;;8.20;99.90;;;;;;4994293;28;20043;-66
2022/04/25 05:05:45;;;;;;;14.52;9.05;;;8.20;99.90;;;;;;4993443;28;20042;-66
2022/04/25 05:08:11;;;;;;;16.70;8.93;;;8.30;99.90;;;;;;4994065;28;20046;-66
2022/04/25 05:10:36;;;;;;;11.98;9.20;;;8.30;99.90;;;;;;4993669;28;20037;-66
2022/04/25 05:13:03;;;;;;;13.73;8.82;;;8.30;99.90;;;;;;4994310;28;20034;-66
2022/04/25 05:15:30;;;;;;;13.38;8.70;;;8.40;99.90;;;;;;4993955;28;20038;-66
2022/04/25 05:17:56;;;;;;;14.10;8.27;;;8.40;99.90;;;;;;4993785;28;20508;-66
2022/04/25 05:20:23;;;;;;;17.45;8.52;;;8.40;99.90;;;;;;4993516;28;20073;-66
2022/04/25 05:22:50;;;;;;;15.75;10.13;;;8.40;99.90;;;;;;4993787;28;20058;-66
2022/04/25 05:25:20;;;;;;;15.23;8.98;;;8.30;99.90;;;;;;4993970;28;20061;-66
2022/04/25 05:27:48;;;;;;;12.95;8.48;;;8.30;99.90;;;;;;4993849;28;20042;-67
2022/04/25 05:30:15;;;;;;;16.30;9.60;;;8.30;99.90;;;;;;5001632;28;20041;-66
2022/04/25 05:32:42;;;;;;;16.05;8.82;;;8.20;99.90;;;;;;5004547;28;20034;-66
2022/04/25 05:35:08;;;;;;;14.27;9.07;;;8.20;99.90;;;;;;4999583;28;20061;-66
2022/04/25 05:37:33;;;;;;;15.13;9.80;;;8.20;99.90;;;;;;5009935;28;20048;-66
2022/04/25 05:39:59;;;;;;;16.27;9.95;;;8.20;99.90;;;;;;5012844;28;20046;-67
2022/04/25 05:42:25;;;;;;;18.42;10.18;;;8.20;99.90;;;;;;5013202;28;20040;-67
2022/04/25 05:44:50;;;;;;;12.38;8.95;;;8.20;99.90;;;;;;5013094;28;20381;-67
2022/04/25 05:47:16;;;;;;;13.00;9.57;;;8.10;99.90;;;;;;5012880;28;20080;-67
2022/04/25 05:52:25;;;;;;;19.05;10.40;;;8.20;99.90;;;;;;5013117;28;20046;-67
2022/04/25 05:54:51;;;;;;;16.10;9.40;;;8.20;99.90;;;;;;5012941;28;20388;-67
2022/04/25 05:57:16;;;;;;;19.75;9.93;;;8.10;99.90;;;;;;5011434;28;20052;-67
2022/04/25 05:59:42;;;;;;;14.60;9.10;;;8.20;99.90;;;;;;5012659;28;20049;-67
2022/04/25 06:02:07;;;;;;;17.60;10.75;;;8.20;99.90;;;;;;5012527;28;20034;-68
2022/04/25 06:04:33;;;;;;;13.55;9.45;;;8.30;99.90;;;;;;5012608;28;20133;-69
2022/04/25 06:06:59;;;;;;;14.45;9.63;;;8.30;99.90;;;;;;5012563;28;20091;-68
2022/04/25 06:09:26;;;;;;;16.77;9.75;;;8.40;99.90;;;;;;5012644;28;20041;-68
2022/04/25 06:11:52;;;;;;;17.27;10.27;;;8.30;99.90;;;;;;5012355;28;20049;-68
2022/04/25 06:14:18;;;;;;;15.80;10.30;;;8.40;99.90;;;;;;5012632;28;20081;-68
2022/04/25 06:16:43;;;;;;;16.38;10.65;;;8.30;99.90;;;;;;5010875;28;20132;-68
2022/04/25 06:19:10;;;;;;;20.02;10.43;;;8.40;99.90;;;;;;5012334;28;20484;-67
2022/04/25 06:21:35;;;;;;;15.27;10.90;;;8.30;99.90;;;;;;5012007;28;20038;-67
2022/04/25 06:24:01;;;;;;;19.58;11.95;;;8.20;99.90;;;;;;5012259;28;20045;-67
2022/04/25 06:26:28;;;;;;;19.02;11.68;;;8.20;99.90;;;;;;5011201;28;20038;-67
2022/04/25 06:28:54;;;;;;;20.38;11.65;;;8.20;99.90;;;;;;5011326;28;20045;-68
2022/04/25 06:31:22;;;;;;;19.25;11.00;;;8.20;99.90;;;;;;5011960;28;20108;-68
2022/04/25 06:33:48;;;;;;;16.95;10.90;;;8.10;99.90;;;;;;5010764;28;20096;-67
2022/04/25 06:36:13;;;;;;;14.52;10.77;;;8.10;99.90;;;;;;5012200;28;20042;-67
2022/04/25 06:38:39;;;;;;;14.43;11.07;;;8.20;99.90;;;;;;5012132;28;20046;-67
2022/04/25 06:41:07;;;;;;;17.48;10.77;;;8.10;99.90;;;;;;5010956;28;20044;-67
2022/04/25 06:43:33;;;;;;;15.20;10.55;;;8.20;99.90;;;;;;5012141;28;20069;-68
2022/04/25 06:45:58;;;;;;;16.50;9.88;;;8.10;99.90;;;;;;5012197;28;20081;-68
2022/04/25 06:48:24;;;;;;;15.75;10.15;;;8.10;99.90;;;;;;5011931;28;20073;-68
2022/04/25 06:50:50;;;;;;;15.43;10.45;;;8.00;99.90;;;;;;5011948;28;20073;-68
2022/04/25 06:53:16;;;;;;;18.20;11.40;;;8.00;99.90;;;;;;5011087;28;20407;-67
2022/04/25 06:55:41;;;;;;;15.73;10.38;;;8.00;99.90;;;;;;5012224;28;20072;-67
2022/04/25 06:58:07;;;;;;;19.25;10.85;;;8.10;99.90;;;;;;5011947;28;20121;-67
2022/04/25 07:00:33;;;;;;;14.35;10.73;;;8.00;99.90;;;;;;5010479;28;20074;-68
2022/04/25 07:02:59;;;;;;;14.65;9.77;;;8.10;99.90;;;;;;5012035;28;20037;-68
2022/04/25 07:05:24;;;;;;;18.55;10.40;;;8.10;99.90;;;;;;5012086;28;20511;-68
2022/04/25 07:07:51;;;;;;;19.52;10.57;;;8.20;99.90;;;;;;5011942;28;20042;-68
2022/04/25 07:10:18;;;;;;;16.77;9.75;;;8.20;99.90;;;;;;5011716;28;20045;-68
2022/04/25 07:12:44;;;;;;;18.73;10.18;;;8.20;99.90;;;;;;5011998;28;20048;-68
2022/04/25 07:15:10;;;;;;;13.52;9.50;;;8.20;99.90;;;;;;5011852;28;20042;-68
2022/04/25 07:17:35;;;;;;;16.67;11.40;;;8.20;99.90;;;;;;5011680;28;20049;-67
2022/04/25 07:20:01;;;;;;;18.85;11.20;;;8.30;99.90;;;;;;5011632;28;20088;-67
2022/04/25 07:30:39;;;;;;;16.30;11.40;;;8.30;99.90;;;;;;5015489;28;20034;-67
2022/04/25 07:33:05;;;;;;;22.77;11.15;;;8.30;99.90;;;;;;5015377;28;20492;-67
2022/04/25 07:35:30;;;;;;;15.32;10.82;;;8.40;99.90;;;;;;5014089;28;20052;-67
2022/04/25 07:37:56;;;;;;;20.02;11.93;;;8.40;99.90;;;;;;5015191;28;20037;-67
2022/04/25 07:40:24;;;;;;;16.60;11.45;;;8.40;99.90;;;;;;5015000;28;20048;-67
2022/04/25 07:42:50;;;;;;;15.68;11.35;;;8.40;99.90;;;;;;5015427;28;20084;-67
2022/04/25 07:45:16;;;;;;;19.75;11.52;;;8.50;99.90;;;;;;5014002;28;20630;-67
2022/04/25 07:47:43;;;;;;;18.02;12.25;;;8.50;99.90;;;;;;5015174;28;20041;-67
2022/04/25 07:50:12;;;;;;;17.23;11.35;;;8.40;99.90;;;;;;5014965;28;20084;-67
2022/04/25 07:52:38;;;;;;;20.17;11.82;;;8.50;99.90;;;;;;5014137;28;20045;-67
2022/04/25 07:55:05;;;;;;;20.95;13.00;;;8.50;99.90;;;;;;5014924;28;20112;-67
2022/04/25 07:57:30;;;;;;;19.45;12.93;;;8.50;99.90;;;;;;5015121;28;20049;-68
2022/04/25 07:59:59;;;;;;;19.60;12.30;;;8.50;99.90;;;;;;5014854;28;20045;-67
2022/04/25 08:02:24;;;;;;;23.55;12.02;;;8.50;99.90;;;;;;5014926;28;20084;-67
2022/04/25 08:04:50;;;;;;;15.07;10.45;;;8.50;99.90;;;;;;5014870;28;20510;-67
2022/04/25 08:07:16;;;;;;;17.65;9.63;;;8.60;99.90;;;;;;5014886;28;20038;-67
2022/04/25 08:09:42;;;;;;;15.90;9.40;;;8.50;99.90;;;;;;5013684;28;20411;-67
2022/04/25 08:17:59;;;;;;;12.35;7.30;;;8.60;99.90;;;;;;5014704;28;20041;-68
2022/04/25 08:20:25;;;;;;;12.55;7.15;;;8.60;99.90;;;;;;5014518;28;20057;-67
2022/04/25 08:22:51;;;;;;;16.00;7.93;;;8.50;99.90;;;;;;5014727;28;20046;-67
2022/04/25 08:25:18;;;;;;;13.43;7.10;;;8.60;99.90;;;;;;5014736;28;20129;-67
2022/04/25 08:27:43;;;;;;;13.40;8.00;;;8.60;99.90;;;;;;5014318;28;20100;-67
2022/04/25 08:30:11;;;;;;;10.02;6.65;;;8.60;99.90;;;;;;5014243;28;20050;-67
2022/04/25 08:32:37;;;;;;;14.15;7.07;;;8.70;99.90;;;;;;5014377;28;20450;-67
2022/04/25 08:35:03;;;;;;;14.45;7.50;;;8.70;99.90;;;;;;5014508;28;20112;-67
2022/04/25 08:37:28;;;;;;;11.93;7.13;;;8.70;99.90;;;;;;5012913;28;20042;-67
2022/04/25 08:39:54;;;;;;;10.65;6.50;;;8.70;99.90;;;;;;5013871;28;20173;-67
2022/04/25 08:42:20;;;;;;;12.07;6.07;;;8.70;99.90;;;;;;5014226;28;20034;-67
2022/04/25 08:44:52;;;;;;;9.38;5.75;;;8.70;99.90;;;;;;5014139;28;20053;-67
2022/04/25 08:47:17;;;;;;;11.77;5.75;;;8.70;99.90;;;;;;5012745;28;20762;-67
2022/04/25 08:49:43;;;;;;;9.98;5.47;;;8.80;99.90;;;;;;5012968;28;20049;-67
2022/04/25 08:52:10;;;;;;;11.10;5.85;;;8.80;99.90;;;;;;5013893;28;20034;-68
2022/04/25 08:54:36;;;;;;;14.05;5.88;;;8.80;99.90;;;;;;5013902;28;20495;-68
2022/04/25 08:57:05;;;;;;;9.13;4.93;;;8.80;99.90;;;;;;5013897;28;20415;-67
2022/04/25 08:59:32;;;;;;;10.98;6.25;;;8.80;99.90;;;;;;5013875;28;20073;-67
2022/04/25 09:01:57;;;;;;;9.73;6.68;;;8.90;99.90;;;;;;5013458;28;20049;-67
2022/04/25 09:04:24;;;;;;;10.88;6.18;;;8.90;99.90;;;;;;5013925;28;20033;-67
2022/04/25 09:06:55;;;;;;;11.07;6.30;;;8.90;99.90;;;;;;5013790;28;20084;-67
2022/04/25 09:09:21;;;;;;;11.43;6.50;;;9.00;99.90;;;;;;5013881;28;20125;-69
2022/04/25 09:14:31;;;;;;;11.55;6.28;;;8.90;99.90;;;;;;5013588;28;20436;-67
2022/04/25 09:16:57;;;;;;;10.52;6.85;;;9.00;99.90;;;;;;5012119;28;20049;-68
2022/04/25 09:19:23;;;;;;;11.77;7.38;;;9.00;99.90;;;;;;5012129;28;20500;-68
2022/04/25 09:21:48;;;;;;;11.13;6.55;;;9.20;99.90;;;;;;5011874;28;20104;-68
2022/04/25 09:24:24;;;;;;;11.98;6.15;;;9.30;99.90;;;;;;4996157;28;20474;-68
2022/04/25 09:27:06;;;;;;;12.45;6.30;;;9.40;99.90;;;;;;5011955;28;20041;-68
2022/04/25 09:29:31;;;;;;;11.40;6.53;;;9.50;99.90;;;;;;5013520;28;20041;-68
2022/04/25 09:31:57;;;;;;;10.35;5.70;;;9.60;99.90;;;;;;5013090;28;20042;-68
2022/04/25 09:37:07;;;;;;;8.63;6.32;;;9.70;99.90;;;;;;5012954;28;20504;-67
2022/04/25 09:39:33;;;;;;;11.77;6.03;;;9.90;99.90;;;;;;5013258;28;20042;-68
2022/04/25 09:42:02;;;;;;;10.82;5.50;;;9.90;99.90;;;;;;5007262;28;20052;-68
2022/04/25 09:44:49;;;;;;;8.32;5.97;;;10.00;99.90;;;;;;5000266;28;20496;-68
2022/04/25 09:47:25;;;;;;;10.82;5.78;;;10.10;99.90;;;;;;5001752;28;20048;-69
2022/04/25 09:50:08;;;;;;;8.73;5.38;;;10.10;99.90;;;;;;5012563;28;20065;-68
2022/04/25 09:52:35;;;;;;;;;;;10.20;99.90;;;;;;5012122;28;20042;-68
2022/04/25 09:55:14;;;;;;;9.55;5.70;;;10.30;99.90;;;;;;5012979;28;19944;-68
2022/04/25 09:57:41;;;;;;;8.77;5.45;;;10.50;99.90;;;;;;5012789;28;20079;-67
2022/04/25 10:00:08;;;;;;;9.82;6.05;;;10.60;99.90;;;;;;5012416;28;20074;-68
2022/04/25 10:02:41;;;;;;;9.40;5.60;;;10.50;99.90;;;;;;5011712;28;20559;-68
2022/04/25 10:05:15;;;;;;;11.50;5.50;;;10.50;99.90;;;;;;5011457;28;20034;-68
2022/04/25 10:07:41;;;;;;;9.98;5.07;;;10.50;99.90;;;;;;5012799;28;20096;-67
2022/04/25 10:10:10;;;;;;;9.90;5.07;;;10.50;99.90;;;;;;5011355;28;20050;-68
2022/04/25 10:12:36;;;;;;;10.88;5.57;;;10.60;99.90;;;;;;5011224;28;20500;-68
2022/04/25 10:15:04;;;;;;;8.40;5.45;;;10.60;99.90;;;;;;5012815;28;20046;-68
2022/04/25 10:17:31;;;;;;;7.63;5.43;;;10.60;99.90;;;;;;5012571;28;20041;-68
2022/04/25 10:19:58;;;;;;;8.15;5.47;;;10.60;99.90;;;;;;5003167;28;20496;-68
2022/04/25 10:22:24;;;;;;;8.68;5.13;;;10.70;99.90;;;;;;5002799;28;20072;-68
2022/04/25 10:24:50;;;;;;;7.60;5.22;;;10.70;99.90;;;;;;5006751;28;20045;-68
2022/04/25 10:27:17;;;;;;;9.27;5.82;;;10.80;99.90;;;;;;5012177;28;20041;-68
2022/04/25 10:29:49;;;;;;;12.57;5.80;;;10.80;99.90;;;;;;5012408;28;20056;-68
2022/04/25 10:32:21;;;;;;;8.85;5.40;;;10.80;99.90;;;;;;5012170;28;20034;-68
2022/04/25 10:34:54;;;;;;;10.52;5.60;;;10.90;99.90;;;;;;5010922;28;20053;-68
2022/04/25 10:37:40;;;;;;;8.15;5.30;;;10.90;99.90;;;;;;5010985;28;20045;-68
2022/04/25 10:40:07;;;;;;;9.38;5.28;;;10.90;99.90;;;;;;5011984;28;20377;-68
2022/04/25 10:45:52;;;;;;;8.70;5.45;;;11.00;99.90;;;;;;5012030;28;20049;-67
2022/04/25 10:48:18;;;;;;;9.05;5.22;;;11.20;99.90;;;;;;4995572;28;20125;-68
2022/04/25 10:51:10;;;;;;;8.43;5.28;;;11.30;99.90;;;;;;4992376;28;20515;-68
2022/04/25 10:54:01;;;;;;;10.32;6.25;;;11.40;99.90;;;;;;4992272;28;20583;-68
2022/04/25 10:56:31;;;;;;;8.57;5.28;;;11.60;99.90;;;;;;4996874;28;20042;-68
2022/04/25 10:59:21;;;;;;;8.88;5.90;;;11.70;99.90;;;;;;4999881;28;20069;-68
2022/04/25 11:01:47;;;;;;;9.98;5.90;;;11.70;99.90;;;;;;4972591;28;20101;-68
2022/04/25 11:04:14;;;;;;;10.65;5.47;;;11.80;99.90;;;;;;4999286;28;20108;-68
2022/04/25 11:06:39;;;;;;;9.13;5.18;;;11.80;99.90;;;;;;5001935;28;20436;-68
2022/04/25 11:09:05;;;;;;;9.75;5.63;;;11.80;99.90;;;;;;5012980;28;20083;-67
2022/04/25 11:11:46;;;;;;;10.40;5.70;;;12.00;99.90;;;;;;5015723;28;20112;-67
2022/04/25 11:14:15;;;;;;;12.38;6.20;;;12.10;99.90;;;;;;5015001;28;20557;-68
2022/04/25 11:16:42;;;;;;;10.25;6.10;;;12.10;99.90;;;;;;5014904;28;20505;-67
2022/04/25 11:19:22;;;;;;;8.82;5.35;;;12.20;99.90;;;;;;5015956;28;20046;-68
2022/04/25 11:21:55;;;;;;;7.88;5.60;;;12.30;98.80;;;;;;5016199;28;20030;-68
2022/04/25 11:24:33;;;;;;;10.10;5.15;;;12.30;98.60;;;;;;5014579;28;20045;-68
2022/04/25 11:27:04;;;;;;;8.27;6.03;;;12.40;98.50;;;;;;4998072;28;20045;-68
2022/04/25 11:29:30;;;;;;;9.60;5.53;;;12.40;97.80;;;;;;5015686;28;20145;-68
2022/04/25 11:32:25;;;;;;;10.40;4.90;;;12.50;98.20;;;;;;5015206;28;20063;-68
2022/04/25 11:34:52;;;;;;;9.85;5.82;;;12.60;97.90;;;;;;5015526;28;20088;-70
2022/04/25 11:37:19;;;;;;;6.97;5.72;;;12.80;98.30;;;;;;5013593;28;20113;-72
2022/04/25 11:40:06;;;;;;;10.30;6.38;;;12.80;97.10;;;;;;5007977;28;20046;-72
2022/04/25 11:42:34;;;;;;;11.13;5.70;;;12.80;97.00;;;;;;5014128;28;20117;-71
2022/04/25 11:45:01;;;;;;;9.73;5.75;;;12.80;96.70;;;;;;5013963;28;20030;-72
2022/04/25 11:47:29;;;;;;;8.65;6.55;;;12.80;96.80;;;;;;5004582;28;20070;-72
2022/04/25 11:50:04;;;;;;;10.10;5.63;;;12.80;96.60;;;;;;5001007;28;20080;-73
2022/04/25 11:52:30;;;;;;;11.73;6.63;;;12.80;96.90;;;;;;5000464;28;20125;-73
2022/04/25 11:54:56;;;;;;;18.27;6.05;;;12.70;96.70;;;;;;4995796;28;20070;-72
2022/04/25 11:57:24;;;;;;;9.85;6.03;;;12.80;96.80;;;;;;4994065;28;20514;-72
2022/04/25 12:00:08;;;;;;;9.73;5.18;;;12.80;97.00;;;;;;4995313;28;20566;-71
2022/04/25 12:02:35;;;;;;;10.20;5.95;;;12.90;96.00;;;;;;4994182;28;20078;-72
2022/04/25 12:05:01;;;;;;;7.75;5.47;;;12.80;96.80;;;;;;4994211;28;20038;-72
2022/04/25 12:07:26;;;;;;;7.72;5.45;;;12.80;96.80;;;;;;4993950;28;20065;-72
2022/04/25 12:15:37;;;;;;;10.93;6.00;;;12.90;96.80;;;;;;4974312;28;20389;-73
2022/04/25 12:18:23;;;;;;;9.90;6.53;;;13.00;96.60;;;;;;4988712;28;20415;-72
2022/04/25 12:21:08;;;;;;;9.90;6.15;;;13.00;96.70;;;;;;4997747;28;20065;-73
2022/04/25 12:23:43;;;;;;;9.23;5.65;;;13.10;96.00;;;;;;4993977;28;20400;-72
2022/04/25 12:26:23;;;;;;;8.77;5.30;;;13.10;93.60;;;;;;4994870;28;20100;-72
2022/04/25 12:28:50;;;;;;;10.02;6.45;;;13.20;94.10;;;;;;4997699;28;20037;-73
2022/04/25 12:31:16;;;;;;;9.80;5.93;;;13.30;94.50;;;;;;5002763;28;20077;-72
2022/04/25 12:33:47;;;;;;;9.57;6.43;;;13.40;94.30;;;;;;5004043;28;21457;-73
2022/04/25 12:36:20;;;;;;;9.23;5.95;;;13.50;94.10;;;;;;4997815;28;20117;-73
2022/04/25 12:38:58;;;;;;;7.72;5.55;;;13.60;93.90;;;;;;4994862;28;20046;-73
2022/04/25 12:41:26;;;;;;;11.13;5.43;;;13.60;89.90;;;;;;4994539;28;20039;-72
2022/04/25 12:43:54;;;;;;;9.35;5.15;;;13.70;90.00;;;;;;4993222;28;20042;-73
2022/04/25 12:46:37;;;;;;;13.38;6.13;;;13.70;90.00;;;;;;4995069;28;20039;-73
2022/04/25 12:49:12;;;;;;;8.95;5.45;;;13.70;87.50;;;;;;4994759;28;20510;-73
2022/04/25 12:51:58;;;;;;;8.15;5.78;;;13.70;86.50;;;;;;4992939;28;20078;-72
2022/04/25 12:54:30;;;;;;;9.15;5.93;;;13.60;83.10;;;;;;5003980;28;20471;-73
2022/04/25 12:57:13;;;;;;;11.97;5.77;;;13.60;83.30;;;;;;5001750;28;20108;-73
2022/04/25 12:59:40;;;;;;;12.52;6.50;;;13.60;84.00;;;;;;5004599;28;20151;-73
2022/04/25 13:02:11;;;;;;;7.70;5.07;;;13.50;86.00;;;;;;5006099;28;20508;-73
2022/04/25 13:04:52;;;;;;;11.60;5.13;;;13.50;86.30;;;;;;5012495;28;20050;-73
2022/04/25 13:07:29;;;;;;;10.98;6.50;;;13.50;86.50;;;;;;5012156;28;20060;-73
2022/04/25 13:09:58;;;;;;;7.45;5.70;;;13.50;85.80;;;;;;5005178;28;20467;-73
2022/04/25 13:12:39;;;;;;;7.50;5.72;;;13.40;86.30;;;;;;5007660;28;20041;-73
2022/04/25 13:15:10;;;;;;;7.95;5.68;;;13.40;86.20;;;;;;5012357;28;20492;-72
2022/04/25 13:17:36;;;;;;;7.75;5.28;;;13.30;87.70;;;;;;5013263;28;20045;-73
2022/04/25 13:20:13;;;;;;;9.77;5.78;;;13.30;88.90;;;;;;5011606;28;20084;-74
2022/04/25 13:22:39;;;;;;;9.45;6.55;;;13.30;88.60;;;;;;4995675;28;20049;-73
2022/04/25 13:25:06;;;;;;;7.75;5.75;;;13.30;88.50;;;;;;5011058;28;20389;-73
2022/04/25 13:27:34;;;;;;;8.48;5.45;;;13.30;88.20;;;;;;5011729;28;20132;-74